Time;durP1;ratioP1;P1;durP2;ratioP2;P2;SDS_P1;SDS_P2;PMS_P1;PMS_P2;Temp;Humidity;BMP_temperature;BMP_pressure;BME280_temperature;BME280_humidity;BME280_pressure;Samples;Min_cycle;Max_cycle;Signal;HPM_P1;HPM_P2
2022/04/14 00:01:46;;;;;;;38.20;10.50;;;;;;;6.63;52.65;99752.67;103541;1300;22905;-28
2022/04/14 00:04:11;;;;;;;22.90;8.70;;;;;;;6.62;52.55;99747.12;103573;1300;24206;-31
2022/04/14 00:06:37;;;;;;;17.30;7.40;;;;;;;6.60;52.56;99748.22;103512;1300;24386;-27
2022/04/14 00:09:03;;;;;;;22.40;8.30;;;;;;;6.63;52.18;99741.31;103624;1300;24282;-29
2022/04/14 00:11:29;;;;;;;16.00;8.00;;;;;;;6.66;52.10;99741.04;103623;1300;24240;-25
2022/04/14 00:13:55;;;;;;;17.50;6.40;;;;;;;6.68;51.85;99733.98;103568;1300;24240;-28
2022/04/14 00:16:21;;;;;;;20.60;8.10;;;;;;;6.70;51.67;99736.44;103570;1300;25437;-29
2022/04/14 00:18:46;;;;;;;17.00;6.80;;;;;;;6.71;51.75;99733.84;103599;1300;24191;-25
2022/04/14 00:21:12;;;;;;;18.10;8.20;;;;;;;6.70;51.89;99740.55;103676;1300;24259;-28
2022/04/14 00:23:38;;;;;;;17.80;8.10;;;;;;;6.66;52.06;99743.09;103520;1300;22516;-28
2022/04/14 00:26:03;;;;;;;17.30;8.50;;;;;;;6.64;51.94;99741.40;103586;1300;23932;-25
2022/04/14 00:28:29;;;;;;;21.00;8.20;;;;;;;6.60;51.99;99744.11;103582;1300;24229;-28
2022/04/14 00:30:55;;;;;;;18.00;8.60;;;;;;;6.55;52.12;99742.52;103566;1300;24359;-28
2022/04/14 00:33:21;;;;;;;16.50;8.20;;;;;;;6.49;52.40;99746.52;103633;1300;24305;-25
2022/04/14 00:35:46;;;;;;;18.30;7.30;;;;;;;6.44;52.31;99748.66;103593;1299;23526;-25
2022/04/14 00:38:12;;;;;;;19.50;9.10;;;;;;;6.38;52.39;99749.85;103533;1300;24321;-25
2022/04/14 00:40:38;;;;;;;18.80;9.20;;;;;;;6.33;52.50;99751.43;103506;1300;22669;-29
2022/04/14 00:43:03;;;;;;;27.00;11.60;;;;;;;6.29;52.41;99744.84;103650;1300;24302;-25
2022/04/14 00:45:29;;;;;;;36.20;15.80;;;;;;;6.27;52.67;99742.23;103540;1300;24199;-25
2022/04/14 00:47:55;;;;;;;29.80;13.80;;;;;;;6.22;53.02;99743.11;103536;1300;24236;-25
2022/04/14 00:50:20;;;;;;;26.70;11.40;;;;;;;6.14;53.20;99744.14;103512;1300;24351;-26
2022/04/14 00:52:47;;;;;;;27.40;11.70;;;;;;;6.05;53.46;99743.10;103508;1300;25137;-28
2022/04/14 00:55:13;;;;;;;30.20;11.10;;;;;;;5.95;53.99;99740.44;103566;1300;24240;-28
2022/04/14 00:57:39;;;;;;;18.00;9.80;;;;;;;5.86;54.20;99739.89;103634;1300;24298;-29
2022/04/14 01:00:06;;;;;;;24.10;11.70;;;;;;;5.78;54.25;99737.15;103561;1300;22537;-25
2022/04/14 01:02:32;;;;;;;15.70;8.60;;;;;;;5.71;54.80;99729.59;103563;1300;24253;-28
2022/04/14 01:04:58;;;;;;;33.20;12.80;;;;;;;5.64;54.94;99734.48;103584;1300;24357;-29
2022/04/14 01:07:24;;;;;;;19.90;10.70;;;;;;;5.59;55.02;99735.56;103507;1300;24340;-28
2022/04/14 01:09:50;;;;;;;19.00;9.40;;;;;;;5.55;55.44;99734.33;103507;1300;24208;-28
2022/04/14 01:12:16;;;;;;;15.90;8.10;;;;;;;5.54;55.35;99733.44;103569;1300;24315;-28
2022/04/14 01:14:41;;;;;;;20.60;9.20;;;;;;;5.53;55.26;99733.46;103459;1300;24345;-28
2022/04/14 01:17:09;;;;;;;15.60;7.10;;;;;;;5.53;55.43;99730.51;103552;1300;24246;-31
2022/04/14 01:19:35;;;;;;;23.90;8.30;;;;;;;5.55;55.52;99724.92;103557;1300;24247;-24
2022/04/14 01:22:04;;;;;;;23.80;9.80;;;;;;;5.59;55.47;99724.34;103572;1300;22764;-25
2022/04/14 01:24:30;;;;;;;25.60;11.00;;;;;;;5.61;55.32;99722.92;103589;1300;23912;-28
2022/04/14 01:26:56;;;;;;;34.80;11.00;;;;;;;5.60;55.34;99725.84;103593;1300;24515;-25
2022/04/14 01:29:22;;;;;;;20.40;8.80;;;;;;;5.63;55.38;99728.09;103543;1300;24300;-25
2022/04/14 01:31:49;;;;;;;18.70;10.30;;;;;;;5.62;55.27;99728.98;103606;1300;24205;-27
2022/04/14 01:34:15;;;;;;;20.00;9.90;;;;;;;5.59;55.25;99729.00;103458;1300;24351;-27
2022/04/14 01:36:41;;;;;;;18.20;9.50;;;;;;;5.54;55.35;99725.01;103530;1300;24222;-27
2022/04/14 01:39:08;;;;;;;27.20;9.50;;;;;;;5.50;55.46;99723.86;103529;1300;24250;-26
2022/04/14 01:41:34;;;;;;;25.20;11.50;;;;;;;5.48;55.64;99723.53;103502;1300;24264;-24
2022/04/14 01:44:00;;;;;;;21.10;10.10;;;;;;;5.43;55.66;99719.04;103574;1300;24220;-26
2022/04/14 01:46:25;;;;;;;29.00;10.60;;;;;;;5.38;55.64;99716.70;103493;1300;24211;-25
2022/04/14 01:48:51;;;;;;;22.20;8.80;;;;;;;5.35;55.60;99719.51;103523;1300;24390;-26
2022/04/14 01:51:17;;;;;;;19.10;8.30;;;;;;;5.32;55.72;99720.86;103602;1300;24323;-27
2022/04/14 01:53:42;;;;;;;18.30;9.60;;;;;;;5.31;55.85;99720.98;103566;1300;24251;-31
2022/04/14 01:56:08;;;;;;;23.10;12.40;;;;;;;5.33;55.92;99719.05;103496;1300;22497;-25
2022/04/14 01:58:34;;;;;;;36.30;16.80;;;;;;;5.33;56.03;99715.98;103537;1299;23612;-30
2022/04/14 02:01:01;;;;;;;25.70;13.00;;;;;;;5.32;55.85;99716.41;103550;1300;24471;-25
2022/04/14 02:03:27;;;;;;;25.20;13.80;;;;;;;5.32;55.94;99717.72;103530;1300;23586;-28
2022/04/14 02:05:52;;;;;;;32.20;16.60;;;;;;;5.29;56.05;99715.11;103581;1299;24270;-28
2022/04/14 02:08:18;;;;;;;27.10;15.20;;;;;;;5.29;56.31;99713.77;103579;1300;24268;-28
2022/04/14 02:10:44;;;;;;;39.80;17.00;;;;;;;5.29;56.73;99709.34;103543;1300;23517;-24
2022/04/14 02:13:10;;;;;;;28.90;15.90;;;;;;;5.26;56.81;99708.73;103554;1300;22637;-28
2022/04/14 02:15:35;;;;;;;28.30;13.80;;;;;;;5.21;56.76;99708.66;103395;1299;24216;-27
2022/04/14 02:18:01;;;;;;;39.50;15.30;;;;;;;5.18;56.77;99703.86;103593;1300;23635;-26
2022/04/14 02:20:27;;;;;;;26.50;15.20;;;;;;;5.13;57.21;99703.04;103642;1300;24300;-25
2022/04/14 02:22:53;;;;;;;20.90;11.40;;;;;;;5.10;57.25;99699.95;103576;1300;24221;-28
2022/04/14 02:25:18;;;;;;;22.10;8.70;;;;;;;5.09;57.49;99697.40;103534;1300;24984;-25
2022/04/14 02:27:44;;;;;;;17.20;9.80;;;;;;;5.08;57.50;99694.38;103545;1300;24318;-25
2022/04/14 02:30:10;;;;;;;18.80;9.80;;;;;;;5.05;57.36;99692.54;103603;1300;24303;-30
2022/04/14 02:32:36;;;;;;;23.30;9.00;;;;;;;5.02;57.63;99696.92;103554;1300;24302;-29
2022/04/14 02:35:04;;;;;;;33.40;14.40;;;;;;;5.00;57.73;99698.57;103555;1300;24259;-28
2022/04/14 02:37:30;;;;;;;50.60;19.10;;;;;;;4.95;58.51;99698.52;103548;1300;22611;-30
2022/04/14 02:39:56;;;;;;;32.80;16.80;;;;;;;4.90;58.25;99693.33;103519;1300;24356;-25
2022/04/14 02:42:22;;;;;;;38.80;16.50;;;;;;;4.86;58.20;99693.02;103605;1300;24300;-29
2022/04/14 02:44:47;;;;;;;18.10;11.80;;;;;;;4.81;58.52;99692.06;103550;1300;22503;-29
2022/04/14 02:47:13;;;;;;;19.00;9.50;;;;;;;4.76;58.72;99689.26;103552;1300;24306;-28
2022/04/14 02:49:39;;;;;;;22.40;9.70;;;;;;;4.69;59.12;99687.94;103540;1300;22516;-28
2022/04/14 02:52:05;;;;;;;26.50;11.80;;;;;;;4.64;59.44;99687.55;103421;1300;24254;-25
2022/04/14 02:54:37;;;;;;;30.50;10.90;;;;;;;4.60;59.53;99687.39;103498;1300;24061;-25
2022/04/14 02:57:05;;;;;;;24.10;10.90;;;;;;;4.60;59.72;99686.55;103557;1300;23566;-27
2022/04/14 02:59:31;;;;;;;21.30;11.80;;;;;;;4.59;59.96;99685.10;103562;1300;24304;-31
2022/04/14 03:01:57;;;;;;;23.40;8.90;;;;;;;4.61;59.91;99686.96;103563;1300;24230;-26
2022/04/14 03:04:22;;;;;;;17.20;8.60;;;;;;;4.61;60.23;99685.23;103530;1300;24237;-28
2022/04/14 03:06:48;;;;;;;16.10;9.10;;;;;;;4.59;59.97;99684.70;103551;1300;24244;-28
2022/04/14 03:09:13;;;;;;;22.90;11.30;;;;;;;4.56;60.28;99683.95;103546;1300;24242;-28
2022/04/14 03:11:39;;;;;;;25.00;13.40;;;;;;;4.52;60.36;99685.01;103588;1300;22502;-27
2022/04/14 03:14:06;;;;;;;27.30;13.60;;;;;;;4.45;60.71;99682.10;103478;1300;23600;-27
2022/04/14 03:16:31;;;;;;;23.90;10.90;;;;;;;4.42;60.74;99684.08;103636;1300;22509;-25
2022/04/14 03:18:58;;;;;;;20.50;9.40;;;;;;;4.39;61.25;99687.36;103506;1300;23589;-25
2022/04/14 03:21:23;;;;;;;25.20;9.50;;;;;;;4.34;61.07;99678.83;103572;1302;24243;-27
2022/04/14 03:23:50;;;;;;;28.40;10.90;;;;;;;4.30;61.02;99683.87;103527;1300;24270;-28
2022/04/14 03:26:16;;;;;;;23.00;9.40;;;;;;;4.25;61.05;99687.70;103587;1300;23802;-25
2022/04/14 03:28:42;;;;;;;20.60;9.10;;;;;;;4.19;61.22;99690.47;103600;1300;24332;-30
2022/04/14 03:31:08;;;;;;;19.70;8.70;;;;;;;4.14;61.51;99688.30;103576;1300;22783;-28
2022/04/14 03:33:33;;;;;;;22.60;9.80;;;;;;;4.10;61.39;99692.19;103589;1300;24259;-28
2022/04/14 03:35:59;;;;;;;29.60;10.90;;;;;;;4.05;61.22;99688.00;103575;1300;24327;-26
2022/04/14 03:38:25;;;;;;;77.50;26.40;;;;;;;3.99;61.40;99685.44;103562;1300;24308;-25
2022/04/14 03:40:51;;;;;;;24.10;14.10;;;;;;;3.93;61.20;99683.27;103545;1300;24221;-28
2022/04/14 03:43:16;;;;;;;30.90;13.70;;;;;;;3.86;61.50;99685.71;103544;1300;24253;-25
2022/04/14 03:45:42;;;;;;;32.50;13.80;;;;;;;3.82;62.91;99687.55;103540;1300;24223;-30
2022/04/14 03:48:08;;;;;;;23.10;10.80;;;;;;;3.85;61.88;99697.89;103544;1300;24266;-25
2022/04/14 03:50:34;;;;;;;22.40;10.00;;;;;;;3.92;61.75;99693.33;103520;1300;24203;-25
2022/04/14 03:53:00;;;;;;;17.20;8.10;;;;;;;3.96;62.72;99696.86;103604;1299;22514;-25
2022/04/14 03:55:26;;;;;;;15.50;8.40;;;;;;;4.01;63.18;99701.84;103578;1301;24346;-29
2022/04/14 03:57:52;;;;;;;13.20;7.60;;;;;;;4.04;62.29;99700.34;103535;1300;24224;-28
2022/04/14 04:00:18;;;;;;;29.90;9.00;;;;;;;4.09;61.57;99701.41;103520;1300;22606;-25
2022/04/14 04:02:44;;;;;;;21.30;10.30;;;;;;;4.11;61.96;99698.64;103544;1300;24409;-25
2022/04/14 04:05:11;;;;;;;28.80;12.30;;;;;;;4.07;62.89;99692.58;103555;1300;24235;-28
2022/04/14 04:07:37;;;;;;;42.20;13.90;;;;;;;4.03;63.47;99695.79;103589;1300;23922;-28
2022/04/14 04:10:04;;;;;;;37.40;13.30;;;;;;;3.99;63.84;99689.65;103545;1300;24297;-28
2022/04/14 04:12:30;;;;;;;22.40;10.70;;;;;;;3.94;64.44;99686.25;103306;1300;333788;-27
2022/04/14 04:14:56;;;;;;;29.70;10.50;;;;;;;3.94;63.64;99682.30;103620;1300;24233;-28
2022/04/14 04:17:22;;;;;;;46.00;11.40;;;;;;;3.98;63.33;99681.63;103499;1300;24293;-25
2022/04/14 04:19:49;;;;;;;36.70;13.20;;;;;;;4.02;63.27;99680.30;103583;1300;24532;-29
2022/04/14 04:22:15;;;;;;;37.90;14.80;;;;;;;4.05;63.17;99682.54;103584;1300;23614;-28
2022/04/14 04:24:40;;;;;;;69.50;19.50;;;;;;;4.08;63.05;99682.99;103544;1300;24215;-25
2022/04/14 04:27:06;;;;;;;233.50;53.30;;;;;;;4.10;62.87;99681.52;103556;1300;23038;-25
2022/04/14 04:29:33;;;;;;;886.60;237.90;;;;;;;4.13;62.77;99679.20;103594;1300;24324;-27
2022/04/14 04:31:59;;;;;;;518.20;121.90;;;;;;;4.16;62.88;99681.42;103526;1300;24222;-25
2022/04/14 04:34:24;;;;;;;87.30;26.60;;;;;;;4.18;62.81;99671.54;103521;1299;24294;-25
2022/04/14 04:36:50;;;;;;;100.10;29.30;;;;;;;4.18;62.87;99673.98;103588;1300;24192;-29
2022/04/14 04:39:16;;;;;;;552.70;141.30;;;;;;;4.18;62.77;99674.11;103587;1300;24256;-28
2022/04/14 04:41:42;;;;;;;632.40;168.80;;;;;;;4.22;62.90;99676.77;103430;1301;23863;-28
2022/04/14 04:44:09;;;;;;;149.10;45.40;;;;;;;4.28;62.93;99678.16;103579;1300;24257;-25
2022/04/14 04:46:35;;;;;;;227.70;57.40;;;;;;;4.31;63.34;99678.10;103586;1300;24312;-25
2022/04/14 04:49:01;;;;;;;487.80;120.50;;;;;;;4.35;65.07;99680.48;103531;1300;24358;-28
2022/04/14 04:51:27;;;;;;;520.50;134.90;;;;;;;4.43;64.32;99679.54;103539;1300;22506;-28
2022/04/14 04:53:53;;;;;;;635.50;163.00;;;;;;;4.54;64.82;99677.94;103568;1300;23587;-25
2022/04/14 04:56:19;;;;;;;503.50;137.10;;;;;;;4.70;64.78;99674.37;103584;1300;24255;-28
2022/04/14 04:58:45;;;;;;;281.90;74.00;;;;;;;4.92;64.72;99676.77;103593;1301;24218;-27
2022/04/14 05:01:12;;;;;;;128.40;37.60;;;;;;;5.15;64.46;99671.66;103546;1300;22497;-28
2022/04/14 05:03:38;;;;;;;99.90;29.90;;;;;;;5.37;63.61;99676.86;103586;1300;24300;-29
2022/04/14 05:06:05;;;;;;;43.80;18.10;;;;;;;5.64;63.14;99678.68;103674;1300;22508;-28
2022/04/14 05:08:31;;;;;;;43.70;19.50;;;;;;;5.97;62.39;99675.13;103636;1300;24284;-27
2022/04/14 05:10:57;;;;;;;58.20;21.30;;;;;;;6.23;61.39;99670.80;103519;1300;24230;-24
2022/04/14 05:13:22;;;;;;;42.80;18.40;;;;;;;6.51;61.27;99666.64;103572;1300;23601;-25
2022/04/14 05:15:48;;;;;;;38.10;15.30;;;;;;;6.82;60.95;99663.84;103508;1300;24273;-28
2022/04/14 05:18:14;;;;;;;29.50;14.00;;;;;;;7.13;60.69;99664.54;103557;1300;24291;-25
2022/04/14 05:20:42;;;;;;;30.00;11.20;;;;;;;7.42;59.72;99665.30;103601;1300;25024;-28
2022/04/14 05:23:09;;;;;;;22.90;11.80;;;;;;;7.70;59.30;99664.31;103538;1300;24289;-25
2022/04/14 05:25:35;;;;;;;24.20;10.10;;;;;;;7.95;58.19;99659.33;103560;1300;24370;-29
2022/04/14 05:28:01;;;;;;;27.00;9.80;;;;;;;8.25;58.19;99662.46;103532;1300;24191;-25
2022/04/14 05:30:26;;;;;;;23.90;9.80;;;;;;;8.52;57.39;99657.30;103570;1300;24407;-25
2022/04/14 05:32:52;;;;;;;20.20;10.60;;;;;;;8.62;56.85;99655.59;103386;1302;24199;-25
2022/04/14 05:35:18;;;;;;;18.10;9.50;;;;;;;8.84;56.38;99657.05;103556;1300;24257;-27
2022/04/14 05:37:43;;;;;;;24.70;9.80;;;;;;;9.13;57.14;99654.36;103567;1300;24290;-27
2022/04/14 05:40:09;;;;;;;27.70;10.00;;;;;;;9.46;57.86;99655.92;103539;1300;24247;-29
2022/04/14 05:42:35;;;;;;;17.00;9.20;;;;;;;9.72;57.36;99657.42;103568;1300;24308;-25
2022/04/14 05:45:01;;;;;;;21.90;9.10;;;;;;;9.96;56.19;99656.14;103509;1300;23640;-25
2022/04/14 05:47:27;;;;;;;23.40;11.70;;;;;;;10.13;55.48;99656.56;103581;1300;23787;-29
2022/04/14 05:49:53;;;;;;;24.50;11.90;;;;;;;10.34;55.11;99659.25;103555;1301;22499;-25
2022/04/14 05:52:20;;;;;;;16.60;11.20;;;;;;;10.55;54.90;99656.48;103526;1300;23652;-24
2022/04/14 05:54:46;;;;;;;18.20;10.20;;;;;;;10.78;54.44;99648.23;103543;1300;22498;-28
2022/04/14 05:57:13;;;;;;;27.30;10.50;;;;;;;11.08;54.80;99650.09;103510;1300;23610;-28
2022/04/14 05:59:39;;;;;;;39.60;10.80;;;;;;;11.33;54.29;99647.80;103502;1300;22514;-29
2022/04/14 06:02:05;;;;;;;20.40;9.50;;;;;;;11.55;53.90;99652.50;103525;1300;24206;-28
2022/04/14 06:04:32;;;;;;;16.60;10.50;;;;;;;11.79;53.78;99654.86;103514;1300;24263;-28
2022/04/14 06:06:57;;;;;;;22.20;9.30;;;;;;;12.01;53.12;99652.98;103530;1300;24275;-31
2022/04/14 06:09:23;;;;;;;20.90;10.00;;;;;;;12.23;51.64;99654.23;103568;1300;24202;-27
2022/04/14 06:11:49;;;;;;;20.60;9.80;;;;;;;12.45;51.66;99652.08;103543;1297;24215;-25
2022/04/14 06:14:15;;;;;;;14.70;8.80;;;;;;;12.81;52.83;99648.71;103526;1300;24222;-28
2022/04/14 06:16:41;;;;;;;20.80;10.40;;;;;;;13.17;51.12;99653.23;103215;1302;22919;-25
2022/04/14 06:19:06;;;;;;;15.70;10.40;;;;;;;13.37;50.86;99656.02;103531;1300;23596;-25
2022/04/14 06:21:32;;;;;;;20.90;11.30;;;;;;;13.61;51.10;99661.89;103536;1300;24215;-28
2022/04/14 06:23:58;;;;;;;19.30;11.00;;;;;;;13.92;50.19;99662.80;103648;1300;24016;-25
2022/04/14 06:26:23;;;;;;;21.10;9.40;;;;;;;13.91;48.93;99661.77;103506;1300;24228;-27
2022/04/14 06:28:49;;;;;;;15.10;9.10;;;;;;;13.98;48.67;99664.38;103556;1300;24304;-28
2022/04/14 06:31:15;;;;;;;18.90;9.30;;;;;;;14.05;47.37;99665.98;103404;1302;24225;-25
2022/04/14 06:33:40;;;;;;;19.90;8.80;;;;;;;14.32;47.77;99661.14;103517;1300;24405;-30
2022/04/14 06:36:06;;;;;;;19.80;10.10;;;;;;;14.53;46.75;99663.70;103535;1300;24013;-30
2022/04/14 06:38:32;;;;;;;18.20;9.50;;;;;;;14.42;45.97;99659.34;103364;1299;24057;-27
2022/04/14 06:40:57;;;;;;;23.40;10.40;;;;;;;14.47;45.42;99658.77;103572;1300;24336;-27
2022/04/14 06:43:24;;;;;;;20.60;12.20;;;;;;;14.79;46.31;99652.44;103589;1300;24227;-27
2022/04/14 06:45:51;;;;;;;19.70;10.20;;;;;;;15.06;45.61;99652.23;103567;1300;22823;-30
2022/04/14 06:48:17;;;;;;;17.80;9.40;;;;;;;15.26;45.22;99652.75;103580;1300;24365;-25
2022/04/14 06:50:42;;;;;;;16.30;9.80;;;;;;;15.48;44.76;99651.48;103536;1300;24759;-30
2022/04/14 06:53:08;;;;;;;22.00;10.80;;;;;;;15.74;44.38;99654.38;103584;1301;23476;-27
2022/04/14 06:55:35;;;;;;;21.50;10.10;;;;;;;15.96;43.52;99654.79;103512;1300;24981;-30
2022/04/14 06:58:02;;;;;;;17.50;9.70;;;;;;;15.92;43.09;99655.75;103505;1300;24218;-27
2022/04/14 07:00:28;;;;;;;21.70;9.40;;;;;;;16.04;42.81;99655.69;103635;1300;23906;-28
2022/04/14 07:02:54;;;;;;;21.60;9.80;;;;;;;16.02;43.19;99655.23;103559;1300;24311;-24
2022/04/14 07:05:22;;;;;;;17.70;9.60;;;;;;;16.12;42.92;99652.55;103551;1300;24451;-27
2022/04/14 07:07:48;;;;;;;15.60;10.90;;;;;;;16.18;42.38;99653.06;103572;1300;24346;-31
2022/04/14 07:10:14;;;;;;;23.90;10.70;;;;;;;16.20;42.45;99653.27;103596;1300;22504;-31
2022/04/14 07:12:41;;;;;;;19.50;11.10;;;;;;;16.19;42.98;99653.68;103556;1299;24322;-30
2022/04/14 07:15:07;;;;;;;20.30;10.80;;;;;;;16.50;42.24;99651.61;103588;1300;24216;-31
2022/04/14 07:17:34;;;;;;;22.00;10.60;;;;;;;16.60;41.77;99652.00;103582;1300;24213;-31
2022/04/14 07:20:03;;;;;;;20.40;11.20;;;;;;;16.65;41.40;99651.88;103557;1298;24260;-28
2022/04/14 07:22:28;;;;;;;16.80;10.50;;;;;;;16.93;40.63;99647.04;103610;1300;22493;-24
2022/04/14 07:24:54;;;;;;;12.50;8.90;;;;;;;17.12;40.47;99644.16;103551;1300;24313;-25
2022/04/14 07:27:21;;;;;;;19.70;11.50;;;;;;;17.26;40.62;99645.42;103540;1300;22502;-29
2022/04/14 07:29:47;;;;;;;17.80;11.20;;;;;;;17.37;40.60;99648.20;103656;1300;24257;-29
2022/04/14 07:32:14;;;;;;;17.50;10.30;;;;;;;17.65;40.11;99647.73;103561;1300;24424;-29
2022/04/14 07:34:40;;;;;;;12.70;9.40;;;;;;;17.95;39.09;99650.04;103591;1300;24283;-28
2022/04/14 07:37:05;;;;;;;16.90;10.20;;;;;;;18.27;39.65;99651.41;103572;1300;24212;-25
2022/04/14 07:39:31;;;;;;;16.80;9.40;;;;;;;18.68;39.15;99645.27;103570;1299;24261;-25
2022/04/14 07:41:57;;;;;;;23.90;10.70;;;;;;;18.86;38.29;99649.91;103563;1300;24279;-29
2022/04/14 07:44:23;;;;;;;16.10;9.20;;;;;;;18.86;37.99;99649.98;103561;1300;24244;-26
2022/04/14 07:46:48;;;;;;;17.10;11.50;;;;;;;18.94;37.21;99648.79;103565;1300;24246;-25
2022/04/14 07:49:14;;;;;;;20.10;10.40;;;;;;;18.92;37.28;99651.88;103551;1300;23634;-29
2022/04/14 07:51:40;;;;;;;18.20;9.00;;;;;;;19.08;37.17;99652.35;103598;1300;23449;-25
2022/04/14 07:54:06;;;;;;;22.60;11.10;;;;;;;19.06;37.17;99654.34;103625;1300;24322;-25
2022/04/14 07:56:33;;;;;;;13.20;8.40;;;;;;;19.26;36.19;99653.80;103575;1300;24215;-24
2022/04/14 07:58:59;;;;;;;11.40;8.80;;;;;;;19.32;36.09;99654.63;103454;1300;22655;-25
2022/04/14 08:01:26;;;;;;;16.50;7.80;;;;;;;19.12;36.01;99661.64;103600;1300;24194;-25
2022/04/14 08:03:51;;;;;;;24.60;11.40;;;;;;;19.46;35.99;99660.52;103598;1300;22916;-26
2022/04/14 08:06:17;;;;;;;20.90;9.80;;;;;;;19.54;35.59;99660.73;103584;1300;22493;-30
2022/04/14 08:08:43;;;;;;;17.10;10.50;;;;;;;19.84;35.32;99658.50;103459;1302;24218;-30
2022/04/14 08:11:10;;;;;;;15.90;8.80;;;;;;;19.93;34.23;99654.56;103535;1300;24354;-29
2022/04/14 08:13:38;;;;;;;13.10;8.50;;;;;;;19.85;35.00;99651.14;103578;1300;24248;-29
2022/04/14 08:16:06;;;;;;;20.90;10.20;;;;;;;20.21;34.24;99648.88;103595;1300;23050;-29
2022/04/14 08:18:34;;;;;;;14.70;8.80;;;;;;;20.53;34.04;99652.18;103538;1300;25351;-25
2022/04/14 08:21:00;;;;;;;17.30;8.80;;;;;;;20.78;34.07;99650.23;103575;1299;22504;-28
2022/04/14 08:23:25;;;;;;;15.30;8.30;;;;;;;20.93;33.64;99651.30;103546;1300;24375;-28
2022/04/14 08:25:51;;;;;;;14.40;9.10;;;;;;;21.34;32.63;99649.43;103527;1300;24196;-24
2022/04/14 08:28:17;;;;;;;14.10;9.20;;;;;;;21.47;33.37;99651.45;103535;1300;24256;-24
2022/04/14 08:30:44;;;;;;;17.00;10.20;;;;;;;22.12;32.95;99656.29;103502;1300;24306;-24
2022/04/14 08:33:10;;;;;;;11.20;8.60;;;;;;;22.51;30.61;99657.34;103558;1300;24209;-25
2022/04/14 08:35:36;;;;;;;24.10;11.30;;;;;;;22.97;31.23;99652.98;103583;1300;24218;-28
2022/04/14 08:38:03;;;;;;;28.40;10.40;;;;;;;23.34;30.49;99651.53;103521;1300;22591;-28
2022/04/14 08:40:33;;;;;;;15.40;9.50;;;;;;;23.17;30.14;99649.27;103577;1300;24276;-28
2022/04/14 08:43:00;;;;;;;16.90;11.00;;;;;;;23.17;30.31;99650.92;103640;1300;22607;-28
2022/04/14 08:45:29;;;;;;;15.00;10.30;;;;;;;22.96;30.05;99648.32;103545;1300;24214;-29
2022/04/14 08:47:55;;;;;;;13.30;9.40;;;;;;;22.95;30.10;99650.29;103463;1300;24255;-28
2022/04/14 08:50:21;;;;;;;13.10;8.30;;;;;;;22.94;29.94;99648.48;103524;1300;24357;-28
2022/04/14 08:52:47;;;;;;;16.30;8.90;;;;;;;22.95;29.66;99643.44;103535;1300;24433;-29
2022/04/14 08:55:14;;;;;;;13.90;10.30;;;;;;;22.74;29.75;99643.83;103550;1300;23359;-29
2022/04/14 08:57:41;;;;;;;12.80;8.60;;;;;;;22.67;29.61;99645.40;103513;1300;24404;-25
2022/04/14 09:00:09;;;;;;;12.30;8.30;;;;;;;22.55;30.30;99651.12;103503;1300;22512;-25
2022/04/14 09:02:34;;;;;;;11.70;6.80;;;;;;;22.37;29.69;99652.04;103566;1300;24212;-28
2022/04/14 09:05:01;;;;;;;10.10;7.30;;;;;;;22.44;31.08;99655.40;103529;1300;24192;-28
2022/04/14 09:07:28;;;;;;;19.10;10.90;;;;;;;22.68;29.97;99654.38;103600;1301;24415;-28
2022/04/14 09:09:54;;;;;;;13.10;8.20;;;;;;;22.49;29.90;99651.98;103528;1300;22940;-28
2022/04/14 09:12:20;;;;;;;14.70;7.60;;;;;;;22.43;30.25;99653.55;103535;1300;24303;-28
2022/04/14 09:14:46;;;;;;;14.40;9.00;;;;;;;22.48;30.25;99646.27;103438;1300;24404;-24
2022/04/14 09:17:12;;;;;;;12.10;8.30;;;;;;;22.47;30.44;99644.42;103561;1301;24220;-28
2022/04/14 09:19:38;;;;;;;11.10;7.40;;;;;;;22.49;30.16;99642.34;103590;1302;24247;-28
2022/04/14 09:22:07;;;;;;;13.50;8.40;;;;;;;22.71;30.34;99635.13;103533;1300;22500;-28
2022/04/14 09:24:40;;;;;;;13.00;8.30;;;;;;;22.69;30.58;99632.81;103591;1300;23373;-28
2022/04/14 09:27:06;;;;;;;10.20;7.10;;;;;;;22.92;30.26;99632.37;103568;1300;22765;-28
2022/04/14 09:29:32;;;;;;;25.20;9.40;;;;;;;23.08;29.53;99627.09;103552;1300;24237;-30
2022/04/14 09:31:57;;;;;;;12.10;8.30;;;;;;;23.10;29.67;99622.10;103633;1300;24301;-27
2022/04/14 09:34:30;;;;;;;14.30;9.50;;;;;;;23.18;29.41;99617.60;103523;1302;24343;-24
2022/04/14 09:37:03;;;;;;;13.50;8.40;;;;;;;23.31;29.34;99611.95;103597;1302;24398;-25
2022/04/14 09:39:28;;;;;;;100.40;13.90;;;;;;;23.37;28.60;99612.88;103582;1300;24390;-28
2022/04/14 09:41:54;;;;;;;10.60;7.80;;;;;;;23.49;29.04;99605.58;103537;1301;23889;-28
2022/04/14 09:44:19;;;;;;;28.90;9.30;;;;;;;23.38;29.04;99607.56;103566;1300;24401;-28
2022/04/14 09:46:46;;;;;;;19.20;9.20;;;;;;;23.54;29.07;99605.02;103564;1300;22496;-24
2022/04/14 09:49:13;;;;;;;14.50;9.00;;;;;;;23.78;29.03;99601.86;103565;1302;24368;-28
2022/04/14 09:51:41;;;;;;;23.20;9.40;;;;;;;23.98;28.93;99594.83;103564;1300;24657;-28
2022/04/14 09:54:12;;;;;;;13.30;9.30;;;;;;;24.23;28.33;99593.14;103517;1300;24365;-28
2022/04/14 09:56:40;;;;;;;14.50;9.00;;;;;;;24.24;27.86;99594.23;103555;1300;23600;-28
2022/04/14 09:59:08;;;;;;;12.40;7.80;;;;;;;24.25;28.24;99595.21;103566;1300;23956;-24
2022/04/14 10:01:34;;;;;;;14.90;9.30;;;;;;;24.57;28.13;99589.45;103610;1301;24212;-24
2022/04/14 10:04:01;;;;;;;12.10;7.70;;;;;;;24.85;27.60;99582.61;103607;1300;23789;-28
2022/04/14 10:06:27;;;;;;;10.40;7.70;;;;;;;25.25;27.12;99574.44;103567;1300;24222;-28
2022/04/14 10:08:55;;;;;;;8.40;6.80;;;;;;;25.30;27.03;99570.06;103622;1300;22518;-24
2022/04/14 10:11:25;;;;;;;21.80;11.30;;;;;;;25.29;26.73;99572.88;103560;1302;24237;-28
2022/04/14 10:13:51;;;;;;;19.40;13.20;;;;;;;25.33;27.08;99574.00;103581;1300;24255;-25
2022/04/14 10:16:20;;;;;;;19.50;11.20;;;;;;;25.06;27.74;99578.11;103567;1300;23527;-24
2022/04/14 10:18:46;;;;;;;15.00;8.50;;;;;;;25.03;27.73;99571.49;103572;1302;23745;-25
2022/04/14 10:21:12;;;;;;;15.70;8.70;;;;;;;25.10;27.57;99567.27;103550;1302;22720;-28
2022/04/14 10:23:38;;;;;;;8.70;6.90;;;;;;;25.28;26.90;99565.14;103591;1300;24236;-24
2022/04/14 10:26:04;;;;;;;17.70;8.00;;;;;;;25.32;26.92;99560.41;103576;1300;22513;-25
2022/04/14 10:28:29;;;;;;;13.50;6.50;;;;;;;25.69;26.61;99560.70;103534;1299;23496;-28
2022/04/14 10:30:55;;;;;;;8.20;6.10;;;;;;;25.79;24.74;99558.71;103547;1300;24285;-24
2022/04/14 10:33:22;;;;;;;7.20;5.60;;;;;;;25.65;25.25;99558.90;103495;1302;24458;-25
2022/04/14 10:35:48;;;;;;;9.90;5.80;;;;;;;25.61;25.60;99555.06;103559;1301;23598;-28
2022/04/14 10:38:19;;;;;;;6.30;5.00;;;;;;;25.88;24.65;99554.21;103536;1302;23105;-25
2022/04/14 10:40:48;;;;;;;6.80;4.30;;;;;;;26.09;24.63;99547.20;103527;1300;24226;-28
2022/04/14 10:43:14;;;;;;;12.10;6.20;;;;;;;26.17;24.54;99546.36;103557;1300;24350;-24
2022/04/14 10:45:47;;;;;;;10.70;6.60;;;;;;;26.17;23.71;99541.29;103517;1302;24260;-24
2022/04/14 10:48:26;;;;;;;10.00;5.10;;;;;;;26.06;23.71;99543.80;103573;1300;23245;-25
2022/04/14 10:51:13;;;;;;;8.50;5.30;;;;;;;26.34;24.16;99545.73;103429;1302;24245;-25
2022/04/14 10:53:46;;;;;;;9.60;5.40;;;;;;;26.76;23.97;99542.76;103600;1299;24256;-28
2022/04/14 10:56:23;;;;;;;10.80;5.80;;;;;;;26.83;24.02;99539.61;103527;1301;23873;-28
2022/04/14 10:58:52;;;;;;;5.70;3.80;;;;;;;26.76;24.01;99540.95;103522;1300;22508;-28
2022/04/14 11:01:19;;;;;;;7.70;4.20;;;;;;;26.71;23.86;99543.23;103554;1302;22507;-24
2022/04/14 11:03:48;;;;;;;17.30;6.30;;;;;;;26.69;23.71;99543.85;103534;1302;25044;-28
2022/04/14 11:06:47;;;;;;;6.20;5.10;;;;;;;26.85;23.40;99541.50;103579;1301;25318;-24
2022/04/14 11:09:20;;;;;;;4.90;4.00;;;;;;;26.72;23.58;99547.01;103584;1302;24331;-28
2022/04/14 11:11:53;;;;;;;6.60;4.10;;;;;;;26.78;23.52;99543.70;103521;1302;24188;-28
2022/04/14 11:14:23;;;;;;;9.70;4.70;;;;;;;26.58;22.92;99541.15;103560;1300;24176;-25